sensor_id;sensor_type;location;lat;lon;timestamp;pressure;altitude;pressure_sealevel;temperature;humidity
52949;BME280;38812;50.942;3.644;2023-04-30T00:01:59;102264.78;;;4.71;100.00
52949;BME280;38812;50.942;3.644;2023-04-30T00:04:24;102272.50;;;4.68;100.00
52949;BME280;38812;50.942;3.644;2023-04-30T00:06:49;102268.97;;;4.66;100.00
52949;BME280;38812;50.942;3.644;2023-04-30T00:09:15;102266.41;;;4.67;100.00
52949;BME280;38812;50.942;3.644;2023-04-30T00:11:40;102268.03;;;4.64;100.00
52949;BME280;38812;50.942;3.644;2023-04-30T00:14:06;102263.72;;;4.64;100.00
52949;BME280;38812;50.942;3.644;2023-04-30T00:16:31;102261.25;;;4.69;100.00
52949;BME280;38812;50.942;3.644;2023-04-30T00:18:56;102262.00;;;4.65;100.00
52949;BME280;38812;50.942;3.644;2023-04-30T00:21:22;102256.84;;;4.66;100.00
52949;BME280;38812;50.942;3.644;2023-04-30T00:23:47;102247.84;;;4.55;100.00
52949;BME280;38812;50.942;3.644;2023-04-30T00:26:12;102247.84;;;4.54;100.00
52949;BME280;38812;50.942;3.644;2023-04-30T00:28:38;102247.91;;;4.57;100.00
52949;BME280;38812;50.942;3.644;2023-04-30T00:31:03;102250.50;;;4.57;100.00
52949;BME280;38812;50.942;3.644;2023-04-30T00:33:31;102255.41;;;4.44;100.00
52949;BME280;38812;50.942;3.644;2023-04-30T00:35:56;102253.56;;;4.40;100.00
52949;BME280;38812;50.942;3.644;2023-04-30T00:38:22;102253.63;;;4.43;100.00
52949;BME280;38812;50.942;3.644;2023-04-30T00:40:48;102250.09;;;4.41;100.00
52949;BME280;38812;50.942;3.644;2023-04-30T00:43:13;102250.78;;;4.34;100.00
52949;BME280;38812;50.942;3.644;2023-04-30T00:45:38;102250.78;;;4.34;100.00
52949;BME280;38812;50.942;3.644;2023-04-30T00:48:04;102255.13;;;4.35;100.00
52949;BME280;38812;50.942;3.644;2023-04-30T00:50:30;102246.28;;;4.27;100.00
52949;BME280;38812;50.942;3.644;2023-04-30T00:52:57;102249.72;;;4.26;100.00
52949;BME280;38812;50.942;3.644;2023-04-30T00:55:24;102255.13;;;4.35;100.00
52949;BME280;38812;50.942;3.644;2023-04-30T00:57:50;102250.56;;;4.25;100.00
52949;BME280;38812;50.942;3.644;2023-04-30T01:00:16;102243.50;;;4.21;100.00
52949;BME280;38812;50.942;3.644;2023-04-30T01:02:42;102250.63;;;4.28;100.00
52949;BME280;38812;50.942;3.644;2023-04-30T01:05:08;102240.06;;;4.22;100.00
52949;BME280;38812;50.942;3.644;2023-04-30T01:07:35;102246.28;;;4.27;100.00
52949;BME280;38812;50.942;3.644;2023-04-30T01:10:03;102238.47;;;4.27;100.00
52949;BME280;38812;50.942;3.644;2023-04-30T01:15:38;102241.59;;;4.47;100.00
52949;BME280;38812;50.942;3.644;2023-04-30T01:18:38;102248.44;;;4.43;100.00
52949;BME280;38812;50.942;3.644;2023-04-30T01:21:06;102252.34;;;4.28;100.00
52949;BME280;38812;50.942;3.644;2023-04-30T01:29:18;102254.22;;;4.33;100.00
52949;BME280;38812;50.942;3.644;2023-04-30T01:31:43;102259.94;;;4.20;100.00
52949;BME280;38812;50.942;3.644;2023-04-30T01:34:09;102263.06;;;4.07;100.00
52949;BME280;38812;50.942;3.644;2023-04-30T01:44:42;102267.97;;;3.98;100.00
52949;BME280;38812;50.942;3.644;2023-04-30T01:52:35;102268.81;;;3.97;100.00
52949;BME280;38812;50.942;3.644;2023-04-30T01:55:17;102259.13;;;3.91;100.00
52949;BME280;38812;50.942;3.644;2023-04-30T01:58:05;102271.50;;;4.00;100.00
52949;BME280;38812;50.942;3.644;2023-04-30T02:00:32;102265.28;;;3.95;100.00
52949;BME280;38812;50.942;3.644;2023-04-30T02:02:58;102270.25;;;3.86;100.00
52949;BME280;38812;50.942;3.644;2023-04-30T02:05:24;102265.16;;;3.90;100.00
52949;BME280;38812;50.942;3.644;2023-04-30T02:07:50;102267.28;;;3.73;100.00
52949;BME280;38812;50.942;3.644;2023-04-30T02:10:19;102262.84;;;3.71;100.00
52949;BME280;38812;50.942;3.644;2023-04-30T02:12:44;102254.75;;;3.60;100.00
52949;BME280;38812;50.942;3.644;2023-04-30T02:15:10;102264.38;;;3.63;100.00
52949;BME280;38812;50.942;3.644;2023-04-30T02:17:35;102251.44;;;3.64;100.00
52949;BME280;38812;50.942;3.644;2023-04-30T02:20:01;102242.69;;;3.62;100.00
52949;BME280;38812;50.942;3.644;2023-04-30T02:22:27;102256.63;;;3.64;100.00
52949;BME280;38812;50.942;3.644;2023-04-30T02:24:53;102254.94;;;3.66;100.00
52949;BME280;38812;50.942;3.644;2023-04-30T02:27:20;102261.50;;;3.84;100.00
52949;BME280;38812;50.942;3.644;2023-04-30T02:29:46;102243.22;;;3.81;100.00
52949;BME280;38812;50.942;3.644;2023-04-30T02:32:11;102257.16;;;3.83;100.00
52949;BME280;38812;50.942;3.644;2023-04-30T02:34:36;102242.84;;;3.68;100.00
52949;BME280;38812;50.942;3.644;2023-04-30T02:37:02;102252.34;;;3.66;100.00
52949;BME280;38812;50.942;3.644;2023-04-30T02:39:27;102246.72;;;3.53;100.00
52949;BME280;38812;50.942;3.644;2023-04-30T02:41:53;102243.19;;;3.51;100.00
52949;BME280;38812;50.942;3.644;2023-04-30T02:44:18;102246.41;;;3.42;100.00
52949;BME280;38812;50.942;3.644;2023-04-30T02:46:43;102245.50;;;3.40;100.00
52949;BME280;38812;50.942;3.644;2023-04-30T02:49:09;102246.97;;;3.32;100.00
52949;BME280;38812;50.942;3.644;2023-04-30T02:51:34;102250.38;;;3.31;100.00
52949;BME280;38812;50.942;3.644;2023-04-30T02:53:59;102254.00;;;3.36;100.00
52949;BME280;38812;50.942;3.644;2023-04-30T02:56:25;102256.13;;;3.49;100.00
52949;BME280;38812;50.942;3.644;2023-04-30T02:58:50;102247.69;;;3.56;100.00
52949;BME280;38812;50.942;3.644;2023-04-30T03:01:16;102256.13;;;3.49;100.00
52949;BME280;38812;50.942;3.644;2023-04-30T03:03:41;102258.56;;;3.43;100.00
52949;BME280;38812;50.942;3.644;2023-04-30T03:06:06;102249.69;;;3.36;100.00
52949;BME280;38812;50.942;3.644;2023-04-30T03:08:32;102241.97;;;3.38;100.00
52949;BME280;38812;50.942;3.644;2023-04-30T03:10:57;102253.44;;;3.44;100.00
52949;BME280;38812;50.942;3.644;2023-04-30T03:13:23;102243.81;;;3.42;100.00
52949;BME280;38812;50.942;3.644;2023-04-30T03:16:02;102245.38;;;3.37;100.00
52949;BME280;38812;50.942;3.644;2023-04-30T03:18:31;102244.34;;;3.32;100.00
52949;BME280;38812;50.942;3.644;2023-04-30T03:20:56;102246.91;;;3.30;100.00
52949;BME280;38812;50.942;3.644;2023-04-30T03:23:22;102245.75;;;3.49;100.00
52949;BME280;38812;50.942;3.644;2023-04-30T03:25:47;102244.75;;;3.44;100.00
52949;BME280;38812;50.942;3.644;2023-04-30T03:28:13;102240.28;;;3.40;100.00
52949;BME280;38812;50.942;3.644;2023-04-30T03:30:39;102237.41;;;3.31;100.00
52949;BME280;38812;50.942;3.644;2023-04-30T03:33:05;102240.84;;;3.30;100.00
52949;BME280;38812;50.942;3.644;2023-04-30T03:35:33;102245.09;;;3.28;100.00
52949;BME280;38812;50.942;3.644;2023-04-30T03:38:02;102232.22;;;3.31;100.00
52949;BME280;38812;50.942;3.644;2023-04-30T03:40:27;102236.56;;;3.32;100.00
52949;BME280;38812;50.942;3.644;2023-04-30T03:42:54;102239.03;;;3.27;100.00
52949;BME280;38812;50.942;3.644;2023-04-30T03:45:19;102236.31;;;3.23;100.00
52949;BME280;38812;50.942;3.644;2023-04-30T03:47:44;102244.16;;;3.26;100.00
52949;BME280;38812;50.942;3.644;2023-04-30T03:50:10;102239.16;;;3.32;100.00
52949;BME280;38812;50.942;3.644;2023-04-30T03:52:36;102242.75;;;3.35;100.00
52949;BME280;38812;50.942;3.644;2023-04-30T03:55:02;102239.91;;;3.28;100.00
52949;BME280;38812;50.942;3.644;2023-04-30T03:57:28;102237.31;;;3.28;100.00
52949;BME280;38812;50.942;3.644;2023-04-30T03:59:53;102226.69;;;3.20;100.00
52949;BME280;38812;50.942;3.644;2023-04-30T04:02:19;102242.75;;;3.35;100.00
52949;BME280;38812;50.942;3.644;2023-04-30T04:04:46;102252.34;;;3.38;100.00
52949;BME280;38812;50.942;3.644;2023-04-30T04:07:11;102252.44;;;3.41;100.00
52949;BME280;38812;50.942;3.644;2023-04-30T04:09:37;102248.78;;;3.34;100.00
52949;BME280;38812;50.942;3.644;2023-04-30T04:12:02;102256.31;;;3.27;100.00
52949;BME280;38812;50.942;3.644;2023-04-30T04:14:27;102242.50;;;3.28;100.00
52949;BME280;38812;50.942;3.644;2023-04-30T04:16:53;102248.47;;;3.24;100.00
52949;BME280;38812;50.942;3.644;2023-04-30T04:19:18;102253.56;;;3.21;100.00
52949;BME280;38812;50.942;3.644;2023-04-30T04:21:44;102237.66;;;3.12;100.00
52949;BME280;38812;50.942;3.644;2023-04-30T04:24:09;102243.66;;;3.09;100.00
52949;BME280;38812;50.942;3.644;2023-04-30T04:26:35;102252.41;;;3.13;100.00
52949;BME280;38812;50.942;3.644;2023-04-30T04:29:04;102229.97;;;3.15;100.00
52949;BME280;38812;50.942;3.644;2023-04-30T04:31:30;102236.16;;;3.18;100.00
52949;BME280;38812;50.942;3.644;2023-04-30T04:33:59;102247.75;;;3.29;100.00
52949;BME280;38812;50.942;3.644;2023-04-30T04:36:26;102239.03;;;3.27;100.00
52949;BME280;38812;50.942;3.644;2023-04-30T04:38:52;102242.75;;;3.35;100.00
52949;BME280;38812;50.942;3.644;2023-04-30T04:41:18;102247.34;;;3.44;100.00
52949;BME280;38812;50.942;3.644;2023-04-30T04:43:43;102257.13;;;3.53;100.00
52949;BME280;38812;50.942;3.644;2023-04-30T04:46:08;102239.63;;;3.47;100.00
52949;BME280;38812;50.942;3.644;2023-04-30T04:48:34;102250.22;;;3.53;100.00
52949;BME280;38812;50.942;3.644;2023-04-30T04:51:00;102256.25;;;3.52;100.00
52949;BME280;38812;50.942;3.644;2023-04-30T04:53:25;102247.81;;;3.59;100.00
52949;BME280;38812;50.942;3.644;2023-04-30T04:55:50;102251.53;;;3.69;100.00
52949;BME280;38812;50.942;3.644;2023-04-30T04:58:16;102255.09;;;3.72;100.00
52949;BME280;38812;50.942;3.644;2023-04-30T05:00:43;102247.53;;;3.80;100.00
52949;BME280;38812;50.942;3.644;2023-04-30T05:03:08;102253.34;;;4.01;100.00
52949;BME280;38812;50.942;3.644;2023-04-30T05:05:34;102242.75;;;4.25;100.00
52949;BME280;38812;50.942;3.644;2023-04-30T05:07:59;102244.16;;;4.45;100.00
52949;BME280;38812;50.942;3.644;2023-04-30T05:10:25;102239.28;;;4.59;100.00
52949;BME280;38812;50.942;3.644;2023-04-30T05:12:50;102240.78;;;4.84;100.00
52949;BME280;38812;50.942;3.644;2023-04-30T05:15:15;102248.19;;;5.03;100.00
52949;BME280;38812;50.942;3.644;2023-04-30T05:17:41;102251.31;;;5.25;100.00
52949;BME280;38812;50.942;3.644;2023-04-30T05:20:07;102250.72;;;5.36;100.00
52949;BME280;38812;50.942;3.644;2023-04-30T05:22:32;102248.22;;;5.81;100.00
52949;BME280;38812;50.942;3.644;2023-04-30T05:24:58;102247.81;;;6.47;100.00
52949;BME280;38812;50.942;3.644;2023-04-30T05:27:23;102248.09;;;7.18;100.00
52949;BME280;38812;50.942;3.644;2023-04-30T05:29:49;102243.44;;;7.58;100.00
52949;BME280;38812;50.942;3.644;2023-04-30T05:32:14;102245.97;;;8.24;100.00
52949;BME280;38812;50.942;3.644;2023-04-30T05:34:40;102235.28;;;8.85;100.00
52949;BME280;38812;50.942;3.644;2023-04-30T05:37:05;102246.75;;;9.01;100.00
52949;BME280;38812;50.942;3.644;2023-04-30T05:39:30;102247.94;;;9.47;100.00
52949;BME280;38812;50.942;3.644;2023-04-30T05:41:56;102245.66;;;10.23;100.00
52949;BME280;38812;50.942;3.644;2023-04-30T05:44:21;102249.94;;;10.07;100.00
52949;BME280;38812;50.942;3.644;2023-04-30T05:46:47;102244.72;;;10.18;100.00
52949;BME280;38812;50.942;3.644;2023-04-30T05:49:12;102243.97;;;10.69;100.00
52949;BME280;38812;50.942;3.644;2023-04-30T05:51:37;102248.34;;;10.85;100.00
52949;BME280;38812;50.942;3.644;2023-04-30T05:54:03;102248.34;;;11.05;100.00
52949;BME280;38812;50.942;3.644;2023-04-30T05:56:28;102247.31;;;11.72;100.00
52949;BME280;38812;50.942;3.644;2023-04-30T05:58:53;102238.53;;;11.86;100.00
52949;BME280;38812;50.942;3.644;2023-04-30T06:01:19;102240.88;;;12.38;100.00
52949;BME280;38812;50.942;3.644;2023-04-30T06:03:45;102238.81;;;12.83;100.00
52949;BME280;38812;50.942;3.644;2023-04-30T06:06:11;102247.19;;;13.30;100.00
52949;BME280;38812;50.942;3.644;2023-04-30T06:08:36;102232.66;;;13.71;100.00
52949;BME280;38812;50.942;3.644;2023-04-30T06:11:02;102236.88;;;13.86;100.00
52949;BME280;38812;50.942;3.644;2023-04-30T06:13:31;102241.75;;;13.46;100.00
52949;BME280;38812;50.942;3.644;2023-04-30T06:15:56;102247.44;;;13.00;100.00
52949;BME280;38812;50.942;3.644;2023-04-30T06:18:22;102251.44;;;12.36;100.00
52949;BME280;38812;50.942;3.644;2023-04-30T06:20:47;102257.06;;;13.05;100.00
52949;BME280;38812;50.942;3.644;2023-04-30T06:23:12;102250.25;;;12.80;100.00
52949;BME280;38812;50.942;3.644;2023-04-30T06:25:38;102250.91;;;13.05;100.00
52949;BME280;38812;50.942;3.644;2023-04-30T06:28:03;102249.97;;;13.20;100.00
52949;BME280;38812;50.942;3.644;2023-04-30T06:30:30;102242.53;;;13.55;100.00
52949;BME280;38812;50.942;3.644;2023-04-30T06:32:56;102254.53;;;12.98;100.00
52949;BME280;38812;50.942;3.644;2023-04-30T06:35:21;102251.25;;;12.65;100.00
52949;BME280;38812;50.942;3.644;2023-04-30T06:37:47;102249.44;;;12.74;100.00
52949;BME280;38812;50.942;3.644;2023-04-30T06:40:12;102242.09;;;13.11;100.00
52949;BME280;38812;50.942;3.644;2023-04-30T06:42:38;102247.72;;;12.69;100.00
52949;BME280;38812;50.942;3.644;2023-04-30T06:45:03;102245.09;;;12.68;100.00
52949;BME280;38812;50.942;3.644;2023-04-30T06:47:30;102250.44;;;12.56;100.00
52949;BME280;38812;50.942;3.644;2023-04-30T06:50:01;102245.19;;;12.53;100.00
52949;BME280;38812;50.942;3.644;2023-04-30T06:52:26;102249.34;;;12.86;100.00
52949;BME280;38812;50.942;3.644;2023-04-30T06:54:51;102249.66;;;12.43;100.00
52949;BME280;38812;50.942;3.644;2023-04-30T06:57:17;102239.06;;;12.49;100.00
52949;BME280;38812;50.942;3.644;2023-04-30T06:59:42;102241.41;;;12.87;100.00
52949;BME280;38812;50.942;3.644;2023-04-30T07:02:08;102257.38;;;12.69;100.00
52949;BME280;38812;50.942;3.644;2023-04-30T07:04:33;102248.44;;;12.88;100.00
52949;BME280;38812;50.942;3.644;2023-04-30T07:06:59;102240.56;;;12.81;100.00
52949;BME280;38812;50.942;3.644;2023-04-30T07:09:29;102249.25;;;12.98;100.00
52949;BME280;38812;50.942;3.644;2023-04-30T07:11:54;102244.78;;;13.01;100.00
52949;BME280;38812;50.942;3.644;2023-04-30T07:14:21;102231.53;;;13.11;100.00
52949;BME280;38812;50.942;3.644;2023-04-30T07:16:49;102233.50;;;12.86;100.00
52949;BME280;38812;50.942;3.644;2023-04-30T07:19:14;102242.97;;;13.10;100.00
52949;BME280;38812;50.942;3.644;2023-04-30T07:21:40;102219.81;;;13.42;100.00
52949;BME280;38812;50.942;3.644;2023-04-30T07:24:05;102232.00;;;13.54;100.00
52949;BME280;38812;50.942;3.644;2023-04-30T07:26:31;102231.31;;;13.35;100.00
52949;BME280;38812;50.942;3.644;2023-04-30T07:28:56;102242.50;;;13.58;100.00
52949;BME280;38812;50.942;3.644;2023-04-30T07:31:21;102235.41;;;13.63;100.00
52949;BME280;38812;50.942;3.644;2023-04-30T07:33:47;102230.03;;;13.71;100.00
52949;BME280;38812;50.942;3.644;2023-04-30T07:36:14;102222.88;;;13.79;100.00
52949;BME280;38812;50.942;3.644;2023-04-30T07:38:40;102226.63;;;13.63;100.00
52949;BME280;38812;50.942;3.644;2023-04-30T07:41:06;102229.44;;;14.17;100.00
52949;BME280;38812;50.942;3.644;2023-04-30T07:43:32;102237.00;;;14.44;100.00
52949;BME280;38812;50.942;3.644;2023-04-30T07:45:57;102233.72;;;14.27;100.00
52949;BME280;38812;50.942;3.644;2023-04-30T07:48:23;102228.00;;;14.54;100.00
52949;BME280;38812;50.942;3.644;2023-04-30T07:50:49;102235.16;;;14.49;100.00
52949;BME280;38812;50.942;3.644;2023-04-30T07:53:14;102238.78;;;14.42;100.00
52949;BME280;38812;50.942;3.644;2023-04-30T07:55:40;102232.91;;;14.79;100.00
52949;BME280;38812;50.942;3.644;2023-04-30T07:58:05;102238.03;;;14.91;100.00
52949;BME280;38812;50.942;3.644;2023-04-30T08:00:31;102234.00;;;15.18;100.00
52949;BME280;38812;50.942;3.644;2023-04-30T08:02:59;102232.50;;;15.51;100.00
52949;BME280;38812;50.942;3.644;2023-04-30T08:05:25;102225.78;;;15.79;100.00
52949;BME280;38812;50.942;3.644;2023-04-30T08:07:51;102221.56;;;15.69;100.00
52949;BME280;38812;50.942;3.644;2023-04-30T08:10:16;102224.03;;;15.78;100.00
52949;BME280;38812;50.942;3.644;2023-04-30T08:12:42;102227.78;;;16.08;100.00
52949;BME280;38812;50.942;3.644;2023-04-30T08:15:08;102233.25;;;16.79;100.00
52949;BME280;38812;50.942;3.644;2023-04-30T08:17:33;102229.38;;;16.91;100.00
52949;BME280;38812;50.942;3.644;2023-04-30T08:20:00;102226.00;;;17.20;100.00
52949;BME280;38812;50.942;3.644;2023-04-30T08:22:25;102233.72;;;17.60;100.00
52949;BME280;38812;50.942;3.644;2023-04-30T08:24:51;102224.34;;;17.79;100.00
52949;BME280;38812;50.942;3.644;2023-04-30T08:27:16;102223.03;;;17.94;100.00
52949;BME280;38812;50.942;3.644;2023-04-30T08:29:42;102229.75;;;18.35;95.93
52949;BME280;38812;50.942;3.644;2023-04-30T08:32:07;102227.50;;;18.49;91.96
52949;BME280;38812;50.942;3.644;2023-04-30T08:34:33;102224.84;;;18.21;100.00
52949;BME280;38812;50.942;3.644;2023-04-30T08:36:59;102231.28;;;18.70;92.74
52949;BME280;38812;50.942;3.644;2023-04-30T08:39:24;102219.72;;;18.97;89.22
52949;BME280;38812;50.942;3.644;2023-04-30T08:41:54;102220.16;;;19.35;90.46
52949;BME280;38812;50.942;3.644;2023-04-30T08:44:25;102219.41;;;19.31;86.58
52949;BME280;38812;50.942;3.644;2023-04-30T08:46:53;102225.53;;;19.60;81.01
52949;BME280;38812;50.942;3.644;2023-04-30T08:49:20;102227.78;;;18.96;85.52
52949;BME280;38812;50.942;3.644;2023-04-30T08:51:46;102216.94;;;19.98;83.11
52949;BME280;38812;50.942;3.644;2023-04-30T08:54:12;102221.50;;;19.95;78.01
52949;BME280;38812;50.942;3.644;2023-04-30T08:56:39;102216.59;;;20.07;80.31
52949;BME280;38812;50.942;3.644;2023-04-30T08:59:05;102210.69;;;19.76;73.83
52949;BME280;38812;50.942;3.644;2023-04-30T09:01:30;102214.00;;;19.82;79.31
52949;BME280;38812;50.942;3.644;2023-04-30T09:03:56;102218.72;;;19.01;76.40
52949;BME280;38812;50.942;3.644;2023-04-30T09:06:22;102214.41;;;19.47;81.55
52949;BME280;38812;50.942;3.644;2023-04-30T09:08:48;102205.97;;;20.06;83.55
52949;BME280;38812;50.942;3.644;2023-04-30T09:11:28;102208.59;;;20.52;76.43
52949;BME280;38812;50.942;3.644;2023-04-30T09:13:56;102210.69;;;20.66;71.20
52949;BME280;38812;50.942;3.644;2023-04-30T09:16:23;102203.25;;;21.15;71.13
52949;BME280;38812;50.942;3.644;2023-04-30T09:18:49;102209.78;;;21.08;69.60
52949;BME280;38812;50.942;3.644;2023-04-30T09:21:15;102211.91;;;20.58;71.70
52949;BME280;38812;50.942;3.644;2023-04-30T09:23:57;102215.66;;;20.75;73.80
52949;BME280;38812;50.942;3.644;2023-04-30T09:26:40;102200.38;;;20.57;74.08
52949;BME280;38812;50.942;3.644;2023-04-30T09:29:06;102207.59;;;20.55;70.22
52949;BME280;38812;50.942;3.644;2023-04-30T09:31:36;102197.56;;;21.23;71.71
52949;BME280;38812;50.942;3.644;2023-04-30T09:34:03;102190.41;;;20.82;69.32
52949;BME280;38812;50.942;3.644;2023-04-30T09:36:28;102197.38;;;21.66;66.82
52949;BME280;38812;50.942;3.644;2023-04-30T09:38:55;102195.94;;;21.20;66.52
52949;BME280;38812;50.942;3.644;2023-04-30T09:41:26;102200.09;;;20.19;67.84
52949;BME280;38812;50.942;3.644;2023-04-30T09:43:57;102201.28;;;18.65;69.25
52949;BME280;38812;50.942;3.644;2023-04-30T09:46:30;102196.16;;;18.85;69.18
52949;BME280;38812;50.942;3.644;2023-04-30T09:48:58;102192.34;;;19.43;71.97
52949;BME280;38812;50.942;3.644;2023-04-30T09:51:24;102183.97;;;19.54;70.07
52949;BME280;38812;50.942;3.644;2023-04-30T09:53:50;102198.75;;;19.13;69.47
52949;BME280;38812;50.942;3.644;2023-04-30T09:56:20;102192.44;;;19.40;73.75
52949;BME280;38812;50.942;3.644;2023-04-30T09:58:49;102197.88;;;19.85;68.11
52949;BME280;38812;50.942;3.644;2023-04-30T10:01:17;102181.38;;;19.98;70.91
52949;BME280;38812;50.942;3.644;2023-04-30T10:03:42;102193.53;;;19.35;65.66
52949;BME280;38812;50.942;3.644;2023-04-30T10:06:14;102181.41;;;19.49;71.41
52949;BME280;38812;50.942;3.644;2023-04-30T10:08:50;102185.88;;;19.74;66.90
52949;BME280;38812;50.942;3.644;2023-04-30T10:11:19;102187.00;;;20.57;68.30
52949;BME280;38812;50.942;3.644;2023-04-30T10:16:15;102181.97;;;20.28;68.35
52949;BME280;38812;50.942;3.644;2023-04-30T10:18:45;102171.78;;;20.15;70.09
52949;BME280;38812;50.942;3.644;2023-04-30T10:21:14;102176.00;;;19.99;68.92
52949;BME280;38812;50.942;3.644;2023-04-30T10:23:43;102174.50;;;19.92;69.59
52949;BME280;38812;50.942;3.644;2023-04-30T10:26:09;102169.75;;;20.00;67.81
52949;BME280;38812;50.942;3.644;2023-04-30T10:28:41;102173.13;;;19.59;65.43
52949;BME280;38812;50.942;3.644;2023-04-30T10:31:07;102173.94;;;19.61;68.73
52949;BME280;38812;50.942;3.644;2023-04-30T10:36:56;102151.78;;;19.82;68.08
52949;BME280;38812;50.942;3.644;2023-04-30T10:39:25;102156.72;;;19.21;68.15
52949;BME280;38812;50.942;3.644;2023-04-30T10:42:04;102148.44;;;19.77;63.91
52949;BME280;38812;50.942;3.644;2023-04-30T10:44:31;102152.56;;;20.07;66.34
52949;BME280;38812;50.942;3.644;2023-04-30T10:47:02;102152.38;;;19.90;66.02
52949;BME280;38812;50.942;3.644;2023-04-30T10:49:28;102145.03;;;19.95;64.29
52949;BME280;38812;50.942;3.644;2023-04-30T10:51:53;102140.31;;;19.80;66.15
52949;BME280;38812;50.942;3.644;2023-04-30T10:54:48;102132.31;;;19.80;66.86
52949;BME280;38812;50.942;3.644;2023-04-30T10:57:15;102126.41;;;19.48;70.96
52949;BME280;38812;50.942;3.644;2023-04-30T11:00:17;102124.78;;;19.44;63.37
52949;BME280;38812;50.942;3.644;2023-04-30T11:02:39;102120.63;;;19.61;64.22
52949;BME280;38812;50.942;3.644;2023-04-30T11:07:31;102108.88;;;19.18;64.09
52949;BME280;38812;50.942;3.644;2023-04-30T11:09:57;102112.44;;;18.94;65.16
52949;BME280;38812;50.942;3.644;2023-04-30T11:12:25;102108.84;;;18.95;65.15
52949;BME280;38812;50.942;3.644;2023-04-30T11:15:13;102115.38;;;19.34;63.21
52949;BME280;38812;50.942;3.644;2023-04-30T11:17:38;102099.72;;;19.02;66.37
52949;BME280;38812;50.942;3.644;2023-04-30T11:20:05;102105.50;;;19.13;67.02
52949;BME280;38812;50.942;3.644;2023-04-30T11:22:30;102109.31;;;18.82;61.34
52949;BME280;38812;50.942;3.644;2023-04-30T11:25:08;102107.31;;;18.88;66.70
52949;BME280;38812;50.942;3.644;2023-04-30T11:27:36;102102.34;;;18.78;65.24
52949;BME280;38812;50.942;3.644;2023-04-30T11:30:08;102091.44;;;18.84;67.06
52949;BME280;38812;50.942;3.644;2023-04-30T11:32:36;102090.50;;;19.10;67.58
52949;BME280;38812;50.942;3.644;2023-04-30T11:35:03;102088.38;;;19.20;63.71
52949;BME280;38812;50.942;3.644;2023-04-30T11:39:55;102083.66;;;19.51;62.78
52949;BME280;38812;50.942;3.644;2023-04-30T11:42:21;102063.78;;;19.82;59.50
52949;BME280;38812;50.942;3.644;2023-04-30T11:44:47;102069.34;;;20.19;61.21
52949;BME280;38812;50.942;3.644;2023-04-30T11:47:13;102065.22;;;19.69;56.37
52949;BME280;38812;50.942;3.644;2023-04-30T11:49:39;102067.31;;;19.61;58.73
52949;BME280;38812;50.942;3.644;2023-04-30T11:52:05;102060.94;;;19.65;57.98
52949;BME280;38812;50.942;3.644;2023-04-30T11:54:34;102049.19;;;19.47;60.75
52949;BME280;38812;50.942;3.644;2023-04-30T11:56:59;102060.25;;;20.03;60.18
52949;BME280;38812;50.942;3.644;2023-04-30T11:59:28;102054.28;;;20.18;61.30
52949;BME280;38812;50.942;3.644;2023-04-30T12:01:54;102057.34;;;19.88;60.96
52949;BME280;38812;50.942;3.644;2023-04-30T12:04:20;102051.47;;;20.22;59.92
52949;BME280;38812;50.942;3.644;2023-04-30T12:06:46;102053.03;;;20.27;60.32
52949;BME280;38812;50.942;3.644;2023-04-30T12:09:11;102043.88;;;20.12;61.41
52949;BME280;38812;50.942;3.644;2023-04-30T12:11:37;102037.88;;;19.40;64.13
52949;BME280;38812;50.942;3.644;2023-04-30T12:14:07;102035.28;;;19.62;58.34
52949;BME280;38812;50.942;3.644;2023-04-30T12:16:43;102030.88;;;19.83;63.08
52949;BME280;38812;50.942;3.644;2023-04-30T12:19:19;102032.09;;;19.52;58.89
52949;BME280;38812;50.942;3.644;2023-04-30T12:21:46;102034.41;;;19.62;56.52
52949;BME280;38812;50.942;3.644;2023-04-30T12:24:17;102040.16;;;19.49;61.42
52949;BME280;38812;50.942;3.644;2023-04-30T12:26:43;102027.91;;;19.45;61.08
52949;BME280;38812;50.942;3.644;2023-04-30T12:29:14;102016.66;;;19.37;58.61
52949;BME280;38812;50.942;3.644;2023-04-30T12:31:40;102014.94;;;19.60;62.84
52949;BME280;38812;50.942;3.644;2023-04-30T12:34:08;102023.44;;;19.46;61.13
52949;BME280;38812;50.942;3.644;2023-04-30T12:36:34;102015.75;;;19.62;64.21
52949;BME280;38812;50.942;3.644;2023-04-30T12:39:12;102000.97;;;19.75;63.58
52949;BME280;38812;50.942;3.644;2023-04-30T12:41:47;102011.91;;;19.69;59.96
52949;BME280;38812;50.942;3.644;2023-04-30T12:44:23;102012.00;;;20.09;57.59
52949;BME280;38812;50.942;3.644;2023-04-30T12:46:51;102033.69;;;19.57;58.81
52949;BME280;38812;50.942;3.644;2023-04-30T12:49:43;102010.25;;;19.43;65.61
52949;BME280;38812;50.942;3.644;2023-04-30T12:52:11;102014.13;;;19.58;58.94
52949;BME280;38812;50.942;3.644;2023-04-30T12:54:38;102013.63;;;19.25;58.55
52949;BME280;38812;50.942;3.644;2023-04-30T12:57:06;102013.22;;;19.12;57.89
52949;BME280;38812;50.942;3.644;2023-04-30T13:02:22;102015.19;;;18.34;63.88
52949;BME280;38812;50.942;3.644;2023-04-30T13:04:48;101994.13;;;19.24;62.74
52949;BME280;38812;50.942;3.644;2023-04-30T13:07:13;101992.56;;;19.64;59.52
52949;BME280;38812;50.942;3.644;2023-04-30T13:09:38;101989.38;;;19.76;57.19
52949;BME280;38812;50.942;3.644;2023-04-30T13:12:05;101992.81;;;20.42;58.78
52949;BME280;38812;50.942;3.644;2023-04-30T13:14:31;102001.19;;;20.12;58.89
52949;BME280;38812;50.942;3.644;2023-04-30T13:16:56;101986.69;;;20.18;58.44
52949;BME280;38812;50.942;3.644;2023-04-30T13:19:22;101991.38;;;20.13;56.79
52949;BME280;38812;50.942;3.644;2023-04-30T13:21:47;101972.38;;;19.78;59.37
52949;BME280;38812;50.942;3.644;2023-04-30T13:24:13;101988.16;;;20.05;55.75